createdAt,value
2018-05-12T00:02:20.539Z,8.77
2018-05-12T00:04:48.760Z,8.50
2018-05-12T00:07:17.271Z,9.00
2018-05-12T00:09:45.507Z,9.53
2018-05-12T00:12:13.903Z,9.37
2018-05-12T00:14:42.396Z,8.60
2018-05-12T00:17:10.780Z,7.63
2018-05-12T00:19:39.173Z,8.70
2018-05-12T00:22:07.534Z,8.17
2018-05-12T00:24:35.746Z,9.83
2018-05-12T00:27:04.283Z,8.90
2018-05-12T00:29:33.367Z,9.33
2018-05-12T00:32:01.604Z,9.13
2018-05-12T00:34:30.043Z,7.93
2018-05-12T00:36:58.304Z,7.60
2018-05-12T00:39:26.518Z,7.13
2018-05-12T00:41:54.868Z,10.37
2018-05-12T00:44:23.799Z,7.83
2018-05-12T00:46:52.169Z,8.70
2018-05-12T00:49:20.487Z,9.57
2018-05-12T00:51:48.883Z,9.47
2018-05-12T00:54:17.243Z,7.90
2018-05-12T00:56:45.751Z,7.73
2018-05-12T00:59:14.139Z,9.13
2018-05-12T01:01:42.395Z,8.63
2018-05-12T01:04:10.756Z,8.20
2018-05-12T01:06:38.991Z,7.23
2018-05-12T01:09:07.239Z,8.07
2018-05-12T01:11:35.483Z,7.87
2018-05-12T01:14:03.707Z,6.90
2018-05-12T01:16:32.034Z,6.47
2018-05-12T01:19:00.442Z,7.00
2018-05-12T01:21:28.717Z,7.70
2018-05-12T01:23:56.951Z,7.17
2018-05-12T01:26:25.242Z,8.77
2018-05-12T01:28:53.751Z,6.53
2018-05-12T01:31:22.036Z,8.20
2018-05-12T01:33:51.419Z,9.47
2018-05-12T01:36:20.596Z,8.17
2018-05-12T01:38:49.110Z,9.37
2018-05-12T01:41:17.324Z,7.60
2018-05-12T01:43:45.559Z,8.50
2018-05-12T01:46:13.835Z,6.73
2018-05-12T01:48:42.199Z,7.17
2018-05-12T01:51:10.410Z,7.07
2018-05-12T01:53:38.659Z,7.90
2018-05-12T01:56:07.147Z,6.47
2018-05-12T01:58:35.443Z,7.77
2018-05-12T02:01:03.657Z,7.53
2018-05-12T02:03:31.895Z,7.37
2018-05-12T02:06:00.110Z,7.20
2018-05-12T02:08:28.351Z,7.53
2018-05-12T02:10:56.570Z,7.87
2018-05-12T02:13:25.791Z,6.63
2018-05-12T02:15:54.171Z,6.93
2018-05-12T02:18:22.479Z,7.77
2018-05-12T02:20:51.206Z,8.33
2018-05-12T02:23:19.443Z,7.33
2018-05-12T02:25:47.665Z,8.87
2018-05-12T02:28:15.999Z,7.03
2018-05-12T02:30:44.310Z,7.07
2018-05-12T02:33:12.707Z,7.50
2018-05-12T02:35:41.199Z,7.43
2018-05-12T02:38:09.462Z,6.40
2018-05-12T02:40:37.859Z,7.40
2018-05-12T02:43:06.335Z,6.17
2018-05-12T02:45:34.613Z,6.33
2018-05-12T02:48:03.024Z,6.57
2018-05-12T02:50:31.243Z,6.50
2018-05-12T02:52:59.459Z,5.87
2018-05-12T02:55:27.799Z,8.00
2018-05-12T02:57:56.169Z,6.77
2018-05-12T03:00:25.292Z,7.03
2018-05-12T03:02:53.575Z,7.10
2018-05-12T03:05:21.827Z,6.47
2018-05-12T03:07:50.039Z,6.43
2018-05-12T03:10:18.575Z,6.70
2018-05-12T03:12:46.875Z,6.53
2018-05-12T03:15:15.795Z,6.23
2018-05-12T03:17:44.110Z,6.70
2018-05-12T03:20:12.353Z,6.43
2018-05-12T03:22:40.567Z,6.07
2018-05-12T03:25:08.807Z,5.27
2018-05-12T03:27:37.150Z,7.57
2018-05-12T03:30:05.387Z,7.93
2018-05-12T03:32:33.603Z,5.77
2018-05-12T03:35:01.844Z,7.77
2018-05-12T03:37:30.059Z,7.10
2018-05-12T03:39:58.294Z,6.87
2018-05-12T03:42:26.518Z,6.50
2018-05-12T03:44:54.735Z,5.93
2018-05-12T03:47:22.975Z,5.80
2018-05-12T03:49:52.218Z,6.47
2018-05-12T03:52:21.223Z,6.43
2018-05-12T03:54:50.202Z,5.77
2018-05-12T03:57:18.439Z,7.23
2018-05-12T03:59:46.855Z,6.27
2018-05-12T04:02:15.369Z,6.07
2018-05-12T04:04:55.490Z,5.53
2018-05-12T04:07:35.785Z,5.27
2018-05-12T04:10:15.846Z,7.30
2018-05-12T04:12:44.097Z,5.83
2018-05-12T04:15:12.590Z,6.33
2018-05-12T04:17:40.831Z,7.47
2018-05-12T04:20:09.347Z,5.60
2018-05-12T04:22:37.723Z,5.30
2018-05-12T04:25:05.938Z,5.50
2018-05-12T04:27:34.175Z,5.33
2018-05-12T04:30:03.215Z,7.03
2018-05-12T04:32:31.464Z,5.10
2018-05-12T04:34:59.683Z,6.03
2018-05-12T04:37:27.900Z,5.30
2018-05-12T04:39:56.247Z,5.37
2018-05-12T04:42:24.651Z,6.27
2018-05-12T04:44:53.050Z,6.03
2018-05-12T04:47:21.407Z,6.07
2018-05-12T04:49:49.808Z,6.27
2018-05-12T04:52:18.130Z,5.80
2018-05-12T04:54:46.375Z,6.77
2018-05-12T04:57:14.595Z,5.13
2018-05-12T04:59:42.982Z,5.77
2018-05-12T05:02:11.193Z,5.73
2018-05-12T05:04:39.544Z,5.80
2018-05-12T05:07:07.790Z,6.73
2018-05-12T05:09:36.135Z,6.93
2018-05-12T05:12:04.379Z,10.33
2018-05-12T05:14:32.680Z,13.40
2018-05-12T05:17:00.990Z,13.30
2018-05-12T05:19:29.243Z,14.07
2018-05-12T05:21:57.488Z,20.07
2018-05-12T05:24:26.270Z,14.87
2018-05-12T05:26:54.549Z,15.37
2018-05-12T05:29:22.790Z,12.97
2018-05-12T05:31:51.019Z,14.73
2018-05-12T05:34:19.362Z,12.17
2018-05-12T05:36:47.719Z,13.67
2018-05-12T05:39:16.139Z,11.67
2018-05-12T05:41:44.433Z,10.83
2018-05-12T05:44:12.590Z,11.17
2018-05-12T05:46:40.826Z,11.13
2018-05-12T05:49:09.138Z,11.27
2018-05-12T05:51:37.377Z,27.90
2018-05-12T05:54:06.562Z,68.40
2018-05-12T05:56:34.782Z,27.83
2018-05-12T05:59:03.031Z,33.23
2018-05-12T06:01:31.270Z,23.10
2018-05-12T06:03:59.600Z,22.93
2018-05-12T06:06:27.816Z,22.00
2018-05-12T06:08:56.367Z,16.90
2018-05-12T06:11:24.895Z,13.63
2018-05-12T06:13:53.742Z,15.83
2018-05-12T06:16:22.102Z,17.07
2018-05-12T06:18:50.499Z,13.63
2018-05-12T06:21:18.766Z,13.90
2018-05-12T06:23:47.106Z,14.33
2018-05-12T06:26:16.103Z,14.27
2018-05-12T06:28:44.347Z,14.73
2018-05-12T06:31:12.659Z,15.47
2018-05-12T06:33:40.894Z,14.10
2018-05-12T06:36:09.118Z,14.20
2018-05-12T06:38:37.358Z,14.77
2018-05-12T06:41:05.595Z,13.60
2018-05-12T06:43:33.987Z,16.53
2018-05-12T06:46:02.336Z,12.23
2018-05-12T06:48:30.719Z,12.67
2018-05-12T06:50:58.952Z,14.13
2018-05-12T06:53:28.099Z,26.63
2018-05-12T06:55:56.466Z,26.37
2018-05-12T06:58:24.790Z,33.10
2018-05-12T07:00:55.346Z,25.07
2018-05-12T07:03:23.582Z,59.87
2018-05-12T07:05:51.806Z,53.53
2018-05-12T07:08:20.808Z,43.33
2018-05-12T07:10:49.806Z,51.33
2018-05-12T07:13:18.060Z,35.07
2018-05-12T07:15:46.288Z,30.73
2018-05-12T07:18:14.622Z,25.90
2018-05-12T07:20:42.841Z,23.50
2018-05-12T07:23:11.087Z,30.83
2018-05-12T07:25:39.315Z,37.30
2018-05-12T07:28:07.559Z,39.43
2018-05-12T07:30:35.786Z,36.50
2018-05-12T07:33:04.108Z,31.27
2018-05-12T07:35:32.644Z,27.60
2018-05-12T07:38:00.839Z,28.97
2018-05-12T07:40:29.093Z,27.80
2018-05-12T07:42:57.365Z,27.50
2018-05-12T07:45:25.688Z,21.53
2018-05-12T07:47:54.678Z,22.07
2018-05-12T07:50:22.922Z,25.03
2018-05-12T07:52:51.147Z,16.30
2018-05-12T07:55:19.382Z,17.63
2018-05-12T07:57:47.626Z,17.47
2018-05-12T08:00:15.870Z,21.17
2018-05-12T08:02:44.097Z,16.03
2018-05-12T08:05:12.344Z,15.87
2018-05-12T08:07:40.571Z,13.80
2018-05-12T08:10:09.683Z,13.30
2018-05-12T08:12:38.167Z,17.47
2018-05-12T08:15:06.414Z,24.17
2018-05-12T08:17:34.910Z,22.93
2018-05-12T08:20:03.159Z,20.83
2018-05-12T08:22:31.407Z,23.23
2018-05-12T08:24:59.640Z,17.73
2018-05-12T08:27:28.620Z,14.13
2018-05-12T08:29:56.984Z,14.77
2018-05-12T08:32:25.408Z,13.27
2018-05-12T08:34:53.655Z,56.57
2018-05-12T08:37:21.908Z,21.97
2018-05-12T08:39:50.900Z,31.30
2018-05-12T08:42:19.931Z,32.67
2018-05-12T08:44:48.174Z,44.77
2018-05-12T08:47:16.604Z,32.23
2018-05-12T08:49:44.826Z,32.97
2018-05-12T08:52:13.083Z,31.93
2018-05-12T08:54:41.322Z,32.70
2018-05-12T08:57:09.555Z,28.37
2018-05-12T08:59:38.571Z,36.30
2018-05-12T09:02:06.828Z,22.83
2018-05-12T09:04:35.463Z,33.77
2018-05-12T09:07:03.876Z,70.13
2018-05-12T09:09:32.127Z,71.50
2018-05-12T09:12:00.354Z,53.43
2018-05-12T09:14:29.767Z,67.23
2018-05-12T09:16:58.007Z,45.07
2018-05-12T09:19:26.412Z,38.63
2018-05-12T09:21:55.516Z,60.90
2018-05-12T09:24:23.853Z,71.53
2018-05-12T09:26:52.171Z,71.20
2018-05-12T09:29:20.642Z,82.60
2018-05-12T09:31:48.983Z,84.87
2018-05-12T09:34:17.335Z,108.80
2018-05-12T09:36:45.655Z,82.20
2018-05-12T09:39:13.903Z,71.63
2018-05-12T09:41:42.239Z,47.30
2018-05-12T09:44:10.614Z,39.67
2018-05-12T09:46:38.847Z,34.43
2018-05-12T09:49:07.081Z,43.70
2018-05-12T09:51:39.019Z,74.13
2018-05-12T09:54:07.386Z,49.67
2018-05-12T09:56:35.887Z,53.40
2018-05-12T09:59:04.146Z,40.23
2018-05-12T10:01:32.647Z,76.27
2018-05-12T10:04:01.005Z,62.97
2018-05-12T10:06:30.563Z,59.70
2018-05-12T10:08:58.930Z,65.27
2018-05-12T10:11:27.159Z,60.60
2018-05-12T10:13:56.071Z,41.87
2018-05-12T10:16:24.342Z,26.90
2018-05-12T10:18:52.714Z,24.80
2018-05-12T10:21:20.938Z,18.37
2018-05-12T10:23:49.287Z,17.57
2018-05-12T10:26:17.593Z,21.47
2018-05-12T10:28:45.815Z,32.13
2018-05-12T10:31:14.053Z,24.60
2018-05-12T10:33:42.411Z,23.40
2018-05-12T10:36:10.642Z,22.37
2018-05-12T10:38:38.891Z,18.13
2018-05-12T10:41:07.221Z,16.97
2018-05-12T10:43:35.686Z,16.73
2018-05-12T10:46:04.068Z,14.10
2018-05-12T10:48:32.310Z,42.47
2018-05-12T10:51:00.542Z,54.93
2018-05-12T10:53:29.250Z,41.23
2018-05-12T10:55:57.588Z,35.70
2018-05-12T10:58:25.963Z,27.03
2018-05-12T11:00:54.244Z,31.63
2018-05-12T11:03:22.592Z,28.23
2018-05-12T11:05:50.839Z,33.47
2018-05-12T11:08:19.058Z,41.03
2018-05-12T11:10:48.103Z,68.57
2018-05-12T11:13:16.395Z,54.43
2018-05-12T11:15:44.646Z,53.40
2018-05-12T11:18:12.927Z,77.43
2018-05-12T11:20:41.622Z,196.73
2018-05-12T11:23:09.928Z,101.53
2018-05-12T11:25:38.367Z,108.23
2018-05-12T11:28:06.813Z,109.57
2018-05-12T11:30:35.183Z,91.10
2018-05-12T11:33:03.471Z,94.77
2018-05-12T11:35:31.726Z,81.03
2018-05-12T11:37:59.963Z,101.63
2018-05-12T11:40:28.215Z,72.83
2018-05-12T11:42:56.848Z,71.67
2018-05-12T11:45:25.087Z,90.93
2018-05-12T11:47:53.432Z,73.20
2018-05-12T11:50:21.799Z,72.47
2018-05-12T11:52:50.194Z,70.97
2018-05-12T11:55:18.444Z,72.83
2018-05-12T11:57:46.671Z,80.60
2018-05-12T12:00:14.914Z,62.20
2018-05-12T12:02:43.146Z,68.40
2018-05-12T12:05:11.496Z,66.43
2018-05-12T12:07:39.718Z,68.10
2018-05-12T12:10:07.969Z,70.97
2018-05-12T12:12:36.199Z,59.37
2018-05-12T12:15:04.507Z,64.30
2018-05-12T12:17:32.741Z,59.83
2018-05-12T12:20:01.115Z,58.97
2018-05-12T12:22:30.523Z,56.47
2018-05-12T12:24:58.774Z,55.17
2018-05-12T12:27:27.184Z,65.17
2018-05-12T12:29:55.431Z,59.33
2018-05-12T12:32:23.655Z,59.90
2018-05-12T12:34:51.902Z,51.73
2018-05-12T12:37:20.132Z,52.00
2018-05-12T12:39:48.554Z,49.67
2018-05-12T12:42:16.779Z,51.57
2018-05-12T12:44:45.203Z,46.47
2018-05-12T12:47:13.558Z,53.57
2018-05-12T12:49:41.875Z,46.30
2018-05-12T12:52:10.144Z,49.70
2018-05-12T12:54:38.423Z,48.30
2018-05-12T12:57:06.790Z,50.30
2018-05-12T12:59:35.148Z,48.23
2018-05-12T13:02:03.395Z,49.30
2018-05-12T13:04:31.999Z,49.77
2018-05-12T13:07:00.415Z,48.70
2018-05-12T13:09:28.663Z,46.07
2018-05-12T13:11:57.054Z,46.47
2018-05-12T13:14:25.287Z,45.27
2018-05-12T13:16:53.530Z,46.00
2018-05-12T13:19:21.767Z,44.37
2018-05-12T13:21:50.074Z,47.87
2018-05-12T13:24:18.456Z,46.77
2018-05-12T13:26:46.818Z,41.23
2018-05-12T13:29:15.111Z,42.50
2018-05-12T13:31:43.470Z,43.70
2018-05-12T13:34:11.863Z,40.17
2018-05-12T13:36:40.339Z,44.30
2018-05-12T13:39:08.655Z,38.10
2018-05-12T13:41:36.987Z,43.33
2018-05-12T13:44:05.210Z,42.57
2018-05-12T13:46:33.547Z,42.53
2018-05-12T13:49:01.796Z,43.93
2018-05-12T13:51:30.303Z,42.17
2018-05-12T13:53:58.583Z,36.47
2018-05-12T13:56:26.835Z,43.00
2018-05-12T13:58:55.063Z,37.17
2018-05-12T14:01:23.307Z,41.87
2018-05-12T14:03:51.551Z,39.53
2018-05-12T14:06:20.570Z,38.97
2018-05-12T14:08:48.950Z,41.10
2018-05-12T14:11:17.199Z,38.50
2018-05-12T14:13:45.611Z,33.57
2018-05-12T14:16:14.029Z,34.87
2018-05-12T14:18:42.468Z,34.50
2018-05-12T14:21:10.775Z,32.90
2018-05-12T14:23:39.008Z,32.33
2018-05-12T14:26:07.256Z,33.00
2018-05-12T14:28:35.574Z,30.67
2018-05-12T14:31:03.943Z,36.37
2018-05-12T14:33:32.979Z,33.87
2018-05-12T14:36:01.327Z,37.20
2018-05-12T14:38:29.703Z,30.67
2018-05-12T14:40:58.775Z,31.60
2018-05-12T14:43:27.987Z,29.60
2018-05-12T14:45:56.342Z,30.10
2018-05-12T14:48:24.852Z,30.80
2018-05-12T14:50:53.080Z,31.20
2018-05-12T14:53:21.330Z,31.57
2018-05-12T14:55:49.560Z,31.27
2018-05-12T14:58:17.818Z,31.57
2018-05-12T15:00:46.047Z,29.50
2018-05-12T15:03:14.294Z,28.77
2018-05-12T15:05:42.519Z,28.80
2018-05-12T15:08:10.847Z,29.03
2018-05-12T15:10:39.335Z,31.17
2018-05-12T15:13:07.715Z,30.23
2018-05-12T15:15:35.947Z,27.57
2018-05-12T15:18:04.195Z,29.00
2018-05-12T15:20:32.986Z,27.00
2018-05-12T15:23:01.234Z,27.23
2018-05-12T15:25:29.463Z,29.77
2018-05-12T15:27:57.875Z,23.83
2018-05-12T15:30:30.327Z,30.07
2018-05-12T15:33:04.274Z,25.50
2018-05-12T15:35:33.511Z,27.43
2018-05-12T15:38:03.668Z,26.80
2018-05-12T15:40:35.709Z,26.60
2018-05-12T15:43:05.704Z,27.33
2018-05-12T15:45:35.755Z,25.27
2018-05-12T15:48:07.891Z,26.10
2018-05-12T15:50:39.669Z,26.03
2018-05-12T15:53:10.334Z,24.37
2018-05-12T15:55:41.008Z,22.70
2018-05-12T15:58:10.679Z,24.87
2018-05-12T16:00:40.588Z,26.43
2018-05-12T16:03:09.868Z,23.17
2018-05-12T16:05:43.015Z,26.50
2018-05-12T16:08:12.211Z,25.23
2018-05-12T16:11:03.871Z,23.10
2018-05-12T16:13:35.111Z,27.07
2018-05-12T16:16:06.751Z,24.90
2018-05-12T16:18:40.984Z,21.57
2018-05-12T16:21:12.312Z,24.17
2018-05-12T16:23:44.070Z,20.97
2018-05-12T16:28:53.773Z,23.83
2018-05-12T16:31:26.145Z,21.10
2018-05-12T16:34:14.172Z,21.47
2018-05-12T16:36:56.104Z,22.53
2018-05-12T16:39:33.939Z,21.23
2018-05-12T16:42:10.448Z,21.17
2018-05-12T16:50:01.677Z,19.37
2018-05-12T16:52:39.422Z,21.67
2018-05-12T16:55:19.844Z,20.93
2018-05-12T16:57:55.080Z,21.70
2018-05-12T17:04:45.492Z,20.03
2018-05-12T17:07:32.350Z,18.27
2018-05-12T17:22:51.882Z,17.27
2018-05-12T17:25:39.207Z,20.77
2018-05-12T17:28:45.626Z,18.50
2018-05-12T17:31:48.542Z,18.63
2018-05-12T17:34:36.488Z,18.67
